Terminal Aerodrome Forecast
Issued by NWS

Current Version | Previous Version | Text Only | Print | Product List | Glossary On
Versions: 1 2 3 4 5 6 7 8 9 10 11 12 13 14
034
FTUS44 KBMX 271135
TAFANB
TAF
KANB 271135Z 2712/2812 21003KT P6SM BKN021 BKN026
     FM271530 23008KT P6SM SCT025 BKN035
     FM271800 21010KT P6SM SCT050
     FM280100 25003KT P6SM SCT035=

USA.gov is the U.S. government's official web portal to all federal, state and local government web resources and services.